Terminal Aerodrome Forecast
Issued by NWS

Home | Current Version | Previous Version | Text Only | Print | Product List | Glossary On
Versions: 1 2 3 4 5 6 7 8 9 10 11 12 13 14 15 16 17
000
FTUS46 KLOX 270527
TAFWJF
TAF
KWJF 270527Z 2706/2806 24010KT P6SM SCT250
     FM272100 23018G28KT P6SM SCT250
     FM280400 24015KT P6SM SCT250=

USA.gov is the U.S. government's official web portal to all federal, state and local government web resources and services.